sensor_id;sensor_type;location;lat;lon;timestamp;pressure;altitude;pressure_sealevel;temperature;humidity
70841;BME280;58465;51.534;9.934;2022-12-18T00:01:05;101445.78;;;-7.77;71.40
70841;BME280;58465;51.534;9.934;2022-12-18T00:03:35;101438.84;;;-7.90;71.45
70841;BME280;58465;51.534;9.934;2022-12-18T00:06:01;101432.63;;;-7.92;71.58
70841;BME280;58465;51.534;9.934;2022-12-18T00:08:27;101438.84;;;-7.90;71.69
70841;BME280;58465;51.534;9.934;2022-12-18T00:10:53;101452.34;;;-7.82;71.68
70841;BME280;58465;51.534;9.934;2022-12-18T00:13:24;101450.66;;;-7.82;71.77
70841;BME280;58465;51.534;9.934;2022-12-18T00:15:49;101440.53;;;-7.79;71.72
70841;BME280;58465;51.534;9.934;2022-12-18T00:18:18;101449.53;;;-7.74;71.71
70841;BME280;58465;51.534;9.934;2022-12-18T00:20:43;101444.56;;;-7.71;71.77
70841;BME280;58465;51.534;9.934;2022-12-18T00:23:08;101453.25;;;-7.70;71.41
70841;BME280;58465;51.534;9.934;2022-12-18T00:25:35;101457.19;;;-7.64;71.77
70841;BME280;58465;51.534;9.934;2022-12-18T00:28:15;101450.41;;;-7.62;71.96
70841;BME280;58465;51.534;9.934;2022-12-18T00:30:40;101447.81;;;-7.50;72.19
70841;BME280;58465;51.534;9.934;2022-12-18T00:33:06;101441.34;;;-7.43;72.12
70841;BME280;58465;51.534;9.934;2022-12-18T00:35:31;101439.53;;;-7.44;72.39
70841;BME280;58465;51.534;9.934;2022-12-18T00:41:16;101460.28;;;-7.33;72.21
70841;BME280;58465;51.534;9.934;2022-12-18T00:44:02;101462.75;;;-7.34;72.16
70841;BME280;58465;51.534;9.934;2022-12-18T00:46:27;101442.56;;;-7.38;71.84
70841;BME280;58465;51.534;9.934;2022-12-18T00:48:56;101473.56;;;-7.28;71.73
70841;BME280;58465;51.534;9.934;2022-12-18T00:51:22;101467.31;;;-7.43;72.06
70841;BME280;58465;51.534;9.934;2022-12-18T00:53:47;101465.91;;;-7.38;71.97
70841;BME280;58465;51.534;9.934;2022-12-18T00:56:12;101460.41;;;-7.43;71.97
70841;BME280;58465;51.534;9.934;2022-12-18T00:58:38;101466.69;;;-7.39;71.82
70841;BME280;58465;51.534;9.934;2022-12-18T01:01:04;101483.63;;;-7.33;71.87
70841;BME280;58465;51.534;9.934;2022-12-18T01:03:30;101475.19;;;-7.42;71.99
70841;BME280;58465;51.534;9.934;2022-12-18T01:05:56;101479.47;;;-7.42;71.99
70841;BME280;58465;51.534;9.934;2022-12-18T01:08:21;101470.69;;;-7.44;71.77
70841;BME280;58465;51.534;9.934;2022-12-18T01:10:46;101467.84;;;-7.47;71.89
70841;BME280;58465;51.534;9.934;2022-12-18T01:13:12;101469.66;;;-7.46;71.64
70841;BME280;58465;51.534;9.934;2022-12-18T01:15:37;101465.97;;;-7.50;71.54
70841;BME280;58465;51.534;9.934;2022-12-18T01:18:02;101464.72;;;-7.55;71.19
70841;BME280;58465;51.534;9.934;2022-12-18T01:20:27;101472.06;;;-7.61;71.17
70841;BME280;58465;51.534;9.934;2022-12-18T01:22:53;101469.81;;;-7.68;71.03
70841;BME280;58465;51.534;9.934;2022-12-18T01:25:18;101480.78;;;-7.72;70.95
70841;BME280;58465;51.534;9.934;2022-12-18T01:27:43;101487.41;;;-7.76;70.95
70841;BME280;58465;51.534;9.934;2022-12-18T01:30:09;101481.78;;;-7.82;70.88
70841;BME280;58465;51.534;9.934;2022-12-18T01:32:35;101481.91;;;-7.80;70.96
70841;BME280;58465;51.534;9.934;2022-12-18T01:35:00;101485.94;;;-7.84;70.74
70841;BME280;58465;51.534;9.934;2022-12-18T01:37:27;101484.03;;;-7.87;71.10
70841;BME280;58465;51.534;9.934;2022-12-18T01:39:52;101483.59;;;-7.81;71.07
70841;BME280;58465;51.534;9.934;2022-12-18T01:42:19;101479.88;;;-7.84;71.01
70841;BME280;58465;51.534;9.934;2022-12-18T01:50:16;101498.03;;;-7.84;70.77
70841;BME280;58465;51.534;9.934;2022-12-18T01:52:53;101513.22;;;-7.77;70.86
70841;BME280;58465;51.534;9.934;2022-12-18T01:55:22;101507.13;;;-7.78;71.05
70841;BME280;58465;51.534;9.934;2022-12-18T01:57:52;101493.50;;;-7.87;71.10
70841;BME280;58465;51.534;9.934;2022-12-18T02:00:20;101488.91;;;-7.91;70.96
70841;BME280;58465;51.534;9.934;2022-12-18T02:02:47;101476.59;;;-7.94;71.06
70841;BME280;58465;51.534;9.934;2022-12-18T02:05:16;101477.63;;;-8.03;70.94
70841;BME280;58465;51.534;9.934;2022-12-18T02:07:54;101477.63;;;-8.03;70.82
70841;BME280;58465;51.534;9.934;2022-12-18T02:10:43;101486.19;;;-8.04;70.76
70841;BME280;58465;51.534;9.934;2022-12-18T02:16:36;101495.53;;;-8.06;70.99
70841;BME280;58465;51.534;9.934;2022-12-18T02:24:42;101485.50;;;-8.13;70.96
70841;BME280;58465;51.534;9.934;2022-12-18T02:27:12;101493.38;;;-8.12;70.65
70841;BME280;58465;51.534;9.934;2022-12-18T02:29:50;101492.50;;;-8.12;71.00
70841;BME280;58465;51.534;9.934;2022-12-18T02:32:38;101493.38;;;-8.24;70.90
70841;BME280;58465;51.534;9.934;2022-12-18T02:35:09;101478.84;;;-8.33;70.79
70841;BME280;58465;51.534;9.934;2022-12-18T02:37:38;101489.34;;;-8.32;70.63
70841;BME280;58465;51.534;9.934;2022-12-18T02:40:05;101491.47;;;-8.38;70.44
70841;BME280;58465;51.534;9.934;2022-12-18T02:42:31;101491.00;;;-8.44;70.67
70841;BME280;58465;51.534;9.934;2022-12-18T02:44:57;101491.13;;;-8.42;71.06
70841;BME280;58465;51.534;9.934;2022-12-18T02:47:24;101488.28;;;-8.45;70.87
70841;BME280;58465;51.534;9.934;2022-12-18T02:50:35;101498.22;;;-8.40;71.07
70841;BME280;58465;51.534;9.934;2022-12-18T02:55:49;101492.59;;;-8.34;71.26
70841;BME280;58465;51.534;9.934;2022-12-18T02:58:28;101500.13;;;-8.26;71.15
70841;BME280;58465;51.534;9.934;2022-12-18T03:01:13;101500.25;;;-8.24;70.92
70841;BME280;58465;51.534;9.934;2022-12-18T03:03:46;101497.53;;;-8.26;71.01
70841;BME280;58465;51.534;9.934;2022-12-18T03:06:23;101490.91;;;-8.34;70.75
70841;BME280;58465;51.534;9.934;2022-12-18T03:08:55;101488.63;;;-8.29;70.78
70841;BME280;58465;51.534;9.934;2022-12-18T03:11:22;101483.34;;;-8.31;70.70
70841;BME280;58465;51.534;9.934;2022-12-18T03:14:08;101482.69;;;-8.28;70.64
70841;BME280;58465;51.534;9.934;2022-12-18T03:16:35;101482.69;;;-8.28;70.83
70841;BME280;58465;51.534;9.934;2022-12-18T03:19:12;101488.97;;;-8.25;70.68
70841;BME280;58465;51.534;9.934;2022-12-18T03:21:46;101481.19;;;-8.25;70.64
70841;BME280;58465;51.534;9.934;2022-12-18T03:24:14;101480.41;;;-8.24;70.54
70841;BME280;58465;51.534;9.934;2022-12-18T03:26:59;101477.28;;;-8.19;70.62
70841;BME280;58465;51.534;9.934;2022-12-18T03:29:31;101463.84;;;-8.26;70.51
70841;BME280;58465;51.534;9.934;2022-12-18T03:32:05;101472.75;;;-8.22;70.16
70841;BME280;58465;51.534;9.934;2022-12-18T03:34:34;101476.78;;;-8.26;70.41
70841;BME280;58465;51.534;9.934;2022-12-18T03:37:01;101473.41;;;-8.25;70.37
70841;BME280;58465;51.534;9.934;2022-12-18T03:39:26;101461.59;;;-8.21;70.52
70841;BME280;58465;51.534;9.934;2022-12-18T03:42:05;101467.34;;;-8.25;70.34
70841;BME280;58465;51.534;9.934;2022-12-18T03:44:44;101461.25;;;-8.26;70.25
70841;BME280;58465;51.534;9.934;2022-12-18T03:47:30;101450.03;;;-8.38;70.10
70841;BME280;58465;51.534;9.934;2022-12-18T03:50:25;101469.50;;;-8.31;69.66
70841;BME280;58465;51.534;9.934;2022-12-18T03:53:08;101469.72;;;-8.40;69.73
70841;BME280;58465;51.534;9.934;2022-12-18T03:55:38;101463.97;;;-8.47;69.52
70841;BME280;58465;51.534;9.934;2022-12-18T03:58:06;101470.97;;;-8.46;69.46
70841;BME280;58465;51.534;9.934;2022-12-18T04:00:33;101459.53;;;-8.60;69.60
70841;BME280;58465;51.534;9.934;2022-12-18T04:03:02;101460.09;;;-8.64;69.55
70841;BME280;58465;51.534;9.934;2022-12-18T04:05:33;101458.97;;;-8.68;69.78
70841;BME280;58465;51.534;9.934;2022-12-18T04:08:02;101462.13;;;-8.60;69.90
70841;BME280;58465;51.534;9.934;2022-12-18T04:10:36;101457.28;;;-8.67;70.30
70841;BME280;58465;51.534;9.934;2022-12-18T04:13:08;101474.84;;;-8.63;70.28
70841;BME280;58465;51.534;9.934;2022-12-18T04:15:35;101472.94;;;-8.66;70.38
70841;BME280;58465;51.534;9.934;2022-12-18T04:18:01;101470.25;;;-8.67;70.30
70841;BME280;58465;51.534;9.934;2022-12-18T04:20:27;101475.41;;;-8.67;70.47
70841;BME280;58465;51.534;9.934;2022-12-18T04:22:52;101475.88;;;-8.61;70.42
70841;BME280;58465;51.534;9.934;2022-12-18T04:25:18;101465.59;;;-8.71;70.31
70841;BME280;58465;51.534;9.934;2022-12-18T04:27:43;101470.53;;;-8.74;70.34
70841;BME280;58465;51.534;9.934;2022-12-18T04:30:09;101479.44;;;-8.71;70.34
70841;BME280;58465;51.534;9.934;2022-12-18T04:32:35;101480.22;;;-8.72;70.20
70841;BME280;58465;51.534;9.934;2022-12-18T04:35:00;101475.72;;;-8.74;70.13
70841;BME280;58465;51.534;9.934;2022-12-18T04:37:25;101489.09;;;-8.80;70.57
70841;BME280;58465;51.534;9.934;2022-12-18T04:39:51;101485.19;;;-8.75;71.10
70841;BME280;58465;51.534;9.934;2022-12-18T04:42:19;101483.72;;;-8.71;70.58
70841;BME280;58465;51.534;9.934;2022-12-18T04:44:44;101484.38;;;-8.74;70.56
70841;BME280;58465;51.534;9.934;2022-12-18T04:47:09;101477.63;;;-8.72;70.46
70841;BME280;58465;51.534;9.934;2022-12-18T04:49:35;101489.47;;;-8.64;70.65
70841;BME280;58465;51.534;9.934;2022-12-18T04:52:00;101479.03;;;-8.65;70.47
70841;BME280;58465;51.534;9.934;2022-12-18T04:54:25;101473.72;;;-8.67;70.42
70841;BME280;58465;51.534;9.934;2022-12-18T04:56:51;101466.50;;;-8.71;70.31
70841;BME280;58465;51.534;9.934;2022-12-18T04:59:16;101478.53;;;-8.71;70.43
70841;BME280;58465;51.534;9.934;2022-12-18T05:01:41;101471.44;;;-8.74;70.35
70841;BME280;58465;51.534;9.934;2022-12-18T05:04:06;101484.28;;;-8.75;70.40
70841;BME280;58465;51.534;9.934;2022-12-18T05:06:32;101478.88;;;-8.78;70.28
70841;BME280;58465;51.534;9.934;2022-12-18T05:08:57;101491.81;;;-8.78;70.22
70841;BME280;58465;51.534;9.934;2022-12-18T05:11:22;101504.81;;;-8.67;70.19
70841;BME280;58465;51.534;9.934;2022-12-18T05:13:48;101501.41;;;-8.77;70.33
70841;BME280;58465;51.534;9.934;2022-12-18T05:16:14;101499.22;;;-8.83;69.99
70841;BME280;58465;51.534;9.934;2022-12-18T05:18:39;101499.22;;;-8.83;70.04
70841;BME280;58465;51.534;9.934;2022-12-18T05:21:05;101512.06;;;-8.84;70.54
70841;BME280;58465;51.534;9.934;2022-12-18T05:23:30;101512.59;;;-8.88;70.23
70841;BME280;58465;51.534;9.934;2022-12-18T05:25:58;101513.75;;;-8.85;70.23
70841;BME280;58465;51.534;9.934;2022-12-18T05:28:25;101502.56;;;-8.95;70.19
70841;BME280;58465;51.534;9.934;2022-12-18T05:30:54;101491.19;;;-8.97;70.44
70841;BME280;58465;51.534;9.934;2022-12-18T05:33:22;101488.72;;;-8.96;70.47
70841;BME280;58465;51.534;9.934;2022-12-18T05:35:55;101488.84;;;-8.94;70.46
70841;BME280;58465;51.534;9.934;2022-12-18T05:38:22;101493.19;;;-8.93;70.45
70841;BME280;58465;51.534;9.934;2022-12-18T05:40:49;101491.34;;;-8.84;70.44
70841;BME280;58465;51.534;9.934;2022-12-18T05:43:15;101490.78;;;-8.80;70.48
70841;BME280;58465;51.534;9.934;2022-12-18T05:45:41;101506.88;;;-8.84;70.03
70841;BME280;58465;51.534;9.934;2022-12-18T05:48:07;101506.31;;;-8.80;70.03
70841;BME280;58465;51.534;9.934;2022-12-18T05:50:37;101504.38;;;-8.83;69.86
70841;BME280;58465;51.534;9.934;2022-12-18T05:53:03;101497.97;;;-8.88;69.43
70841;BME280;58465;51.534;9.934;2022-12-18T05:55:28;101490.84;;;-8.90;69.59
70841;BME280;58465;51.534;9.934;2022-12-18T05:57:53;101500.50;;;-9.00;69.42
70841;BME280;58465;51.534;9.934;2022-12-18T06:00:19;101499.72;;;-8.98;69.33
70841;BME280;58465;51.534;9.934;2022-12-18T06:02:47;101491.25;;;-9.08;69.87
70841;BME280;58465;51.534;9.934;2022-12-18T06:05:12;101501.13;;;-9.14;69.96
70841;BME280;58465;51.534;9.934;2022-12-18T06:07:38;101502.13;;;-9.12;70.06
70841;BME280;58465;51.534;9.934;2022-12-18T06:10:03;101509.63;;;-9.05;70.21
70841;BME280;58465;51.534;9.934;2022-12-18T06:12:29;101498.34;;;-9.05;70.05
70841;BME280;58465;51.534;9.934;2022-12-18T06:14:54;101495.19;;;-9.01;70.14
70841;BME280;58465;51.534;9.934;2022-12-18T06:17:31;101476.88;;;-9.04;69.96
70841;BME280;58465;51.534;9.934;2022-12-18T06:19:57;101494.91;;;-8.94;70.14
70841;BME280;58465;51.534;9.934;2022-12-18T06:22:22;101503.81;;;-8.90;70.23
70841;BME280;58465;51.534;9.934;2022-12-18T06:24:48;101498.63;;;-8.90;70.01
70841;BME280;58465;51.534;9.934;2022-12-18T06:27:13;101514.75;;;-8.83;69.99
70841;BME280;58465;51.534;9.934;2022-12-18T06:29:39;101502.38;;;-8.87;69.88
70841;BME280;58465;51.534;9.934;2022-12-18T06:32:04;101501.72;;;-8.84;69.81
70841;BME280;58465;51.534;9.934;2022-12-18T06:34:29;101509.56;;;-8.83;69.96
70841;BME280;58465;51.534;9.934;2022-12-18T06:36:55;101506.69;;;-8.76;69.96
70841;BME280;58465;51.534;9.934;2022-12-18T06:39:20;101493.84;;;-8.74;70.23
70841;BME280;58465;51.534;9.934;2022-12-18T06:41:45;101496.78;;;-8.70;70.43
70841;BME280;58465;51.534;9.934;2022-12-18T06:44:10;101499.31;;;-8.59;70.25
70841;BME280;58465;51.534;9.934;2022-12-18T06:46:36;101509.72;;;-8.48;70.00
70841;BME280;58465;51.534;9.934;2022-12-18T06:49:02;101501.03;;;-8.48;69.67
70841;BME280;58465;51.534;9.934;2022-12-18T06:51:28;101507.66;;;-8.52;69.28
70841;BME280;58465;51.534;9.934;2022-12-18T06:53:53;101507.13;;;-8.48;69.55
70841;BME280;58465;51.534;9.934;2022-12-18T06:56:18;101511.81;;;-8.54;69.86
70841;BME280;58465;51.534;9.934;2022-12-18T06:58:44;101509.59;;;-8.49;69.85
70841;BME280;58465;51.534;9.934;2022-12-18T07:01:10;101511.50;;;-8.35;69.93
70841;BME280;58465;51.534;9.934;2022-12-18T07:03:37;101504.31;;;-8.28;69.77
70841;BME280;58465;51.534;9.934;2022-12-18T07:06:03;101512.28;;;-8.25;69.45
70841;BME280;58465;51.534;9.934;2022-12-18T07:08:30;101503.41;;;-8.16;69.23
70841;BME280;58465;51.534;9.934;2022-12-18T07:11:03;101514.00;;;-8.13;69.13
70841;BME280;58465;51.534;9.934;2022-12-18T07:13:29;101512.66;;;-8.20;68.94
70841;BME280;58465;51.534;9.934;2022-12-18T07:16:27;101532.81;;;-8.16;69.29
70841;BME280;58465;51.534;9.934;2022-12-18T07:18:54;101526.41;;;-8.21;69.76
70841;BME280;58465;51.534;9.934;2022-12-18T07:21:21;101537.91;;;-8.17;69.95
70841;BME280;58465;51.534;9.934;2022-12-18T07:23:47;101536.66;;;-8.23;69.91
70841;BME280;58465;51.534;9.934;2022-12-18T07:26:14;101545.31;;;-8.22;70.22
70841;BME280;58465;51.534;9.934;2022-12-18T07:28:41;101544.44;;;-8.23;70.04
70841;BME280;58465;51.534;9.934;2022-12-18T07:31:12;101547.25;;;-8.19;70.20
70841;BME280;58465;51.534;9.934;2022-12-18T07:33:38;101552.31;;;-8.21;70.52
70841;BME280;58465;51.534;9.934;2022-12-18T07:36:06;101555.25;;;-8.16;70.44
70841;BME280;58465;51.534;9.934;2022-12-18T07:38:34;101560.44;;;-8.16;70.47
70841;BME280;58465;51.534;9.934;2022-12-18T07:41:01;101581.06;;;-8.06;70.31
70841;BME280;58465;51.534;9.934;2022-12-18T07:43:26;101577.50;;;-8.08;70.45
70841;BME280;58465;51.534;9.934;2022-12-18T07:45:52;101573.53;;;-8.03;70.59
70841;BME280;58465;51.534;9.934;2022-12-18T07:48:17;101577.16;;;-8.01;70.39
70841;BME280;58465;51.534;9.934;2022-12-18T07:50:42;101566.66;;;-8.03;70.20
70841;BME280;58465;51.534;9.934;2022-12-18T07:53:13;101569.50;;;-8.00;70.13
70841;BME280;58465;51.534;9.934;2022-12-18T07:55:40;101575.91;;;-7.95;69.84
70841;BME280;58465;51.534;9.934;2022-12-18T07:58:06;101582.38;;;-7.90;69.82
70841;BME280;58465;51.534;9.934;2022-12-18T08:00:32;101575.13;;;-7.94;69.64
70841;BME280;58465;51.534;9.934;2022-12-18T08:02:57;101561.25;;;-7.94;69.85
70841;BME280;58465;51.534;9.934;2022-12-18T08:05:23;101559.69;;;-7.92;69.47
70841;BME280;58465;51.534;9.934;2022-12-18T08:07:49;101552.94;;;-7.90;69.42
70841;BME280;58465;51.534;9.934;2022-12-18T08:10:14;101546.06;;;-7.90;69.14
70841;BME280;58465;51.534;9.934;2022-12-18T08:12:40;101548.66;;;-7.90;69.29
70841;BME280;58465;51.534;9.934;2022-12-18T08:15:05;101542.56;;;-7.90;68.96
70841;BME280;58465;51.534;9.934;2022-12-18T08:17:31;101533.22;;;-7.88;68.82
70841;BME280;58465;51.534;9.934;2022-12-18T08:19:56;101533.31;;;-7.87;68.91
70841;BME280;58465;51.534;9.934;2022-12-18T08:22:22;101511.78;;;-7.86;68.82
70841;BME280;58465;51.534;9.934;2022-12-18T08:24:47;101528.47;;;-7.82;68.56
70841;BME280;58465;51.534;9.934;2022-12-18T08:27:12;101537.94;;;-7.82;68.10
70841;BME280;58465;51.534;9.934;2022-12-18T08:29:37;101533.09;;;-7.90;67.69
70841;BME280;58465;51.534;9.934;2022-12-18T08:32:03;101530.28;;;-7.81;67.64
70841;BME280;58465;51.534;9.934;2022-12-18T08:34:28;101542.59;;;-7.78;67.26
70841;BME280;58465;51.534;9.934;2022-12-18T08:36:54;101533.78;;;-7.80;67.57
70841;BME280;58465;51.534;9.934;2022-12-18T08:39:19;101538.19;;;-7.79;67.91
70841;BME280;58465;51.534;9.934;2022-12-18T08:41:44;101533.06;;;-7.78;68.18
70841;BME280;58465;51.534;9.934;2022-12-18T08:44:29;101527.56;;;-7.71;68.36
70841;BME280;58465;51.534;9.934;2022-12-18T08:47:05;101534.00;;;-7.54;68.27
70841;BME280;58465;51.534;9.934;2022-12-18T08:49:31;101539.06;;;-7.44;68.52
70841;BME280;58465;51.534;9.934;2022-12-18T08:51:56;101529.00;;;-7.39;68.54
70841;BME280;58465;51.534;9.934;2022-12-18T08:54:26;101536.09;;;-7.25;68.41
70841;BME280;58465;51.534;9.934;2022-12-18T08:56:52;101515.44;;;-7.24;68.46
70841;BME280;58465;51.534;9.934;2022-12-18T08:59:18;101508.63;;;-7.10;68.45
70841;BME280;58465;51.534;9.934;2022-12-18T09:01:43;101504.41;;;-6.96;68.30
70841;BME280;58465;51.534;9.934;2022-12-18T09:04:09;101504.47;;;-6.83;68.02
70841;BME280;58465;51.534;9.934;2022-12-18T09:06:35;101484.13;;;-6.77;67.81
70841;BME280;58465;51.534;9.934;2022-12-18T09:09:00;101500.13;;;-6.71;68.00
70841;BME280;58465;51.534;9.934;2022-12-18T09:11:27;101498.16;;;-6.62;68.01
70841;BME280;58465;51.534;9.934;2022-12-18T09:13:53;101497.88;;;-6.53;68.15
70841;BME280;58465;51.534;9.934;2022-12-18T09:16:20;101494.91;;;-6.46;68.06
70841;BME280;58465;51.534;9.934;2022-12-18T09:18:48;101493.94;;;-6.35;67.98
70841;BME280;58465;51.534;9.934;2022-12-18T09:21:19;101501.16;;;-6.31;67.67
70841;BME280;58465;51.534;9.934;2022-12-18T09:23:50;101516.19;;;-6.14;67.63
70841;BME280;58465;51.534;9.934;2022-12-18T09:26:19;101515.88;;;-6.05;67.46
70841;BME280;58465;51.534;9.934;2022-12-18T09:28:45;101505.31;;;-6.08;67.40
70841;BME280;58465;51.534;9.934;2022-12-18T09:31:14;101512.13;;;-5.97;67.19
70841;BME280;58465;51.534;9.934;2022-12-18T09:33:43;101512.53;;;-5.91;67.09
70841;BME280;58465;51.534;9.934;2022-12-18T09:36:14;101504.81;;;-5.89;67.01
70841;BME280;58465;51.534;9.934;2022-12-18T09:38:39;101502.00;;;-5.79;66.85
70841;BME280;58465;51.534;9.934;2022-12-18T09:46:45;101502.53;;;-5.17;66.15
70841;BME280;58465;51.534;9.934;2022-12-18T09:49:15;101491.75;;;-4.96;65.73
70841;BME280;58465;51.534;9.934;2022-12-18T09:51:48;101490.38;;;-4.76;64.90
70841;BME280;58465;51.534;9.934;2022-12-18T09:54:19;101483.03;;;-4.68;64.78
70841;BME280;58465;51.534;9.934;2022-12-18T09:56:47;101480.22;;;-4.43;64.54
70841;BME280;58465;51.534;9.934;2022-12-18T10:01:43;101495.53;;;-4.05;63.80
70841;BME280;58465;51.534;9.934;2022-12-18T10:04:30;101490.47;;;-3.88;63.23
70841;BME280;58465;51.534;9.934;2022-12-18T10:07:18;101493.00;;;-3.89;63.48
70841;BME280;58465;51.534;9.934;2022-12-18T10:10:04;101486.69;;;-3.78;63.29
70841;BME280;58465;51.534;9.934;2022-12-18T10:12:46;101504.50;;;-3.56;63.32
70841;BME280;58465;51.534;9.934;2022-12-18T10:18:20;101494.81;;;-3.43;62.83
70841;BME280;58465;51.534;9.934;2022-12-18T10:20:52;101494.69;;;-3.29;63.29
70841;BME280;58465;51.534;9.934;2022-12-18T10:26:24;101481.63;;;-3.29;63.91
70841;BME280;58465;51.534;9.934;2022-12-18T10:28:53;101494.81;;;-3.12;64.09
70841;BME280;58465;51.534;9.934;2022-12-18T10:31:22;101478.53;;;-3.06;63.86
70841;BME280;58465;51.534;9.934;2022-12-18T10:37:16;101476.22;;;-2.69;64.17
70841;BME280;58465;51.534;9.934;2022-12-18T10:39:42;101486.59;;;-2.54;64.56
70841;BME280;58465;51.534;9.934;2022-12-18T10:42:16;101486.44;;;-2.41;64.54
70841;BME280;58465;51.534;9.934;2022-12-18T10:44:42;101488.88;;;-2.44;64.89
70841;BME280;58465;51.534;9.934;2022-12-18T10:47:14;101490.91;;;-2.39;64.89
70841;BME280;58465;51.534;9.934;2022-12-18T10:49:47;101480.84;;;-2.31;65.03
70841;BME280;58465;51.534;9.934;2022-12-18T10:52:20;101486.69;;;-2.19;65.00
70841;BME280;58465;51.534;9.934;2022-12-18T10:54:53;101480.97;;;-2.12;65.06
70841;BME280;58465;51.534;9.934;2022-12-18T10:59:55;101486.91;;;-1.98;65.62
70841;BME280;58465;51.534;9.934;2022-12-18T11:02:27;101477.88;;;-1.87;65.15
70841;BME280;58465;51.534;9.934;2022-12-18T11:04:52;101467.94;;;-1.76;64.71
70841;BME280;58465;51.534;9.934;2022-12-18T11:07:18;101455.19;;;-1.69;64.38
70841;BME280;58465;51.534;9.934;2022-12-18T11:09:43;101452.88;;;-1.63;64.34
70841;BME280;58465;51.534;9.934;2022-12-18T11:12:17;101451.66;;;-1.52;64.43
70841;BME280;58465;51.534;9.934;2022-12-18T11:14:47;101431.44;;;-1.36;64.08
70841;BME280;58465;51.534;9.934;2022-12-18T11:17:28;101424.91;;;-1.27;63.58
70841;BME280;58465;51.534;9.934;2022-12-18T11:20:05;101428.09;;;-1.15;63.18
70841;BME280;58465;51.534;9.934;2022-12-18T11:22:34;101431.22;;;-1.04;62.69
70841;BME280;58465;51.534;9.934;2022-12-18T11:25:04;101431.03;;;-0.89;62.60
70841;BME280;58465;51.534;9.934;2022-12-18T11:27:31;101431.59;;;-0.77;62.42
70841;BME280;58465;51.534;9.934;2022-12-18T11:32:43;101425.44;;;-0.58;61.73
70841;BME280;58465;51.534;9.934;2022-12-18T11:35:14;101414.66;;;-0.64;61.55
70841;BME280;58465;51.534;9.934;2022-12-18T11:37:43;101412.63;;;-0.51;61.68
70841;BME280;58465;51.534;9.934;2022-12-18T11:40:27;101417.41;;;-0.61;61.03
70841;BME280;58465;51.534;9.934;2022-12-18T11:43:07;101414.69;;;-0.44;61.14
70841;BME280;58465;51.534;9.934;2022-12-18T11:45:45;101394.13;;;-0.54;60.36
70841;BME280;58465;51.534;9.934;2022-12-18T11:50:51;101382.16;;;-0.47;60.10
70841;BME280;58465;51.534;9.934;2022-12-18T11:53:18;101380.88;;;-0.36;59.73
70841;BME280;58465;51.534;9.934;2022-12-18T12:17:57;101343.97;;;-0.41;59.80
70841;BME280;58465;51.534;9.934;2022-12-18T12:23:40;101332.34;;;-0.25;59.30
70841;BME280;58465;51.534;9.934;2022-12-18T12:29:14;101317.41;;;-0.05;58.70
70841;BME280;58465;51.534;9.934;2022-12-18T12:37:29;101313.13;;;-0.03;57.19
70841;BME280;58465;51.534;9.934;2022-12-18T12:40:02;101306.81;;;0.14;57.11
70841;BME280;58465;51.534;9.934;2022-12-18T12:42:34;101298.38;;;0.23;56.68
70841;BME280;58465;51.534;9.934;2022-12-18T12:45:27;101296.22;;;0.13;56.19
70841;BME280;58465;51.534;9.934;2022-12-18T12:47:54;101299.97;;;0.19;56.39
70841;BME280;58465;51.534;9.934;2022-12-18T12:50:21;101291.19;;;0.17;55.85
70841;BME280;58465;51.534;9.934;2022-12-18T12:52:55;101296.31;;;0.36;55.82
70841;BME280;58465;51.534;9.934;2022-12-18T12:55:24;101285.34;;;0.48;55.20
70841;BME280;58465;51.534;9.934;2022-12-18T12:58:05;101281.16;;;0.53;54.96
70841;BME280;58465;51.534;9.934;2022-12-18T13:00:42;101288.34;;;0.57;54.67
70841;BME280;58465;51.534;9.934;2022-12-18T13:06:00;101286.53;;;0.56;54.46
70841;BME280;58465;51.534;9.934;2022-12-18T13:08:30;101295.66;;;0.66;54.58
70841;BME280;58465;51.534;9.934;2022-12-18T13:10:59;101289.50;;;0.65;54.68
70841;BME280;58465;51.534;9.934;2022-12-18T13:13:53;101294.84;;;0.67;54.92
70841;BME280;58465;51.534;9.934;2022-12-18T13:16:23;101295.34;;;0.58;55.16
70841;BME280;58465;51.534;9.934;2022-12-18T13:18:51;101296.53;;;0.43;55.10
70841;BME280;58465;51.534;9.934;2022-12-18T13:21:24;101286.97;;;0.22;55.90
70841;BME280;58465;51.534;9.934;2022-12-18T13:23:52;101280.00;;;0.23;56.22
70841;BME280;58465;51.534;9.934;2022-12-18T13:31:57;101287.25;;;0.30;56.03
70841;BME280;58465;51.534;9.934;2022-12-18T13:34:21;101289.72;;;0.03;56.26
70841;BME280;58465;51.534;9.934;2022-12-18T13:36:47;101292.34;;;0.03;56.45
70841;BME280;58465;51.534;9.934;2022-12-18T13:41:51;101289.09;;;0.09;56.33
70841;BME280;58465;51.534;9.934;2022-12-18T13:44:24;101283.84;;;0.09;56.22
70841;BME280;58465;51.534;9.934;2022-12-18T13:46:51;101282.75;;;0.04;55.96
70841;BME280;58465;51.534;9.934;2022-12-18T13:49:40;101287.81;;;-0.01;56.14
70841;BME280;58465;51.534;9.934;2022-12-18T13:52:33;101287.09;;;0.03;56.29
70841;BME280;58465;51.534;9.934;2022-12-18T13:55:02;101297.59;;;0.03;56.29
70841;BME280;58465;51.534;9.934;2022-12-18T13:57:33;101296.09;;;0.10;56.40
70841;BME280;58465;51.534;9.934;2022-12-18T14:00:22;101298.13;;;-0.06;56.39
70841;BME280;58465;51.534;9.934;2022-12-18T14:02:49;101293.53;;;-0.11;56.56
70841;BME280;58465;51.534;9.934;2022-12-18T14:05:32;101285.53;;;-0.14;56.59
70841;BME280;58465;51.534;9.934;2022-12-18T14:08:05;101279.22;;;-0.19;56.61
70841;BME280;58465;51.534;9.934;2022-12-18T14:10:31;101274.72;;;-0.22;56.59
70841;BME280;58465;51.534;9.934;2022-12-18T14:12:58;101271.50;;;-0.15;56.48
70841;BME280;58465;51.534;9.934;2022-12-18T14:15:35;101274.91;;;-0.17;56.59
70841;BME280;58465;51.534;9.934;2022-12-18T14:18:23;101277.44;;;-0.20;56.12
70841;BME280;58465;51.534;9.934;2022-12-18T14:20:51;101271.97;;;-0.25;56.14
70841;BME280;58465;51.534;9.934;2022-12-18T14:26:19;101258.59;;;-0.31;55.60
70841;BME280;58465;51.534;9.934;2022-12-18T14:28:45;101250.72;;;-0.31;55.56
70841;BME280;58465;51.534;9.934;2022-12-18T14:31:18;101248.81;;;-0.35;55.44
70841;BME280;58465;51.534;9.934;2022-12-18T14:33:44;101245.94;;;-0.41;55.43
70841;BME280;58465;51.534;9.934;2022-12-18T14:36:18;101230.50;;;-0.33;55.09